Time;durP1;ratioP1;P1;durP2;ratioP2;P2;SDS_P1;SDS_P2;PMS_P1;PMS_P2;Temp;Humidity;BMP_temperature;BMP_pressure;BME280_temperature;BME280_humidity;BME280_pressure;Samples;Min_cycle;Max_cycle;Signal;HPM_P1;HPM_P2
2022/04/25 00:00:01;;;;;;;1.45;0.80;;;8.30;99.90;;;8.76;nan;96463.59;169900;29;987;-71
2022/04/25 00:00:09;;;;;;;1.65;0.88;;;8.30;99.90;;;8.81;nan;96466.50;170472;28;1832;-71
2022/04/25 00:00:15;;;;;;;2.10;0.90;;;8.30;99.90;;;8.80;nan;96464.88;171203;28;1227;-71
2022/04/25 00:00:21;;;;;;;2.40;0.87;;;8.30;99.90;;;8.83;nan;96470.66;171998;28;871;-71
2022/04/25 00:00:27;;;;;;;2.17;0.80;;;8.30;99.90;;;8.80;nan;96476.44;171295;28;904;-71
2022/04/25 00:00:35;;;;;;;2.08;0.70;;;8.30;99.90;;;8.75;nan;96461.97;171292;28;1008;-71
2022/04/25 00:00:41;;;;;;;2.08;0.68;;;8.30;99.90;;;8.77;nan;96474.16;171962;28;1340;-71
2022/04/25 00:00:47;;;;;;;1.77;0.68;;;8.30;99.90;;;8.77;nan;96468.78;171634;28;1580;-71
2022/04/25 00:00:52;;;;;;;1.52;0.70;;;8.30;99.90;;;8.72;nan;96470.41;172077;28;1390;-71
2022/04/25 00:00:58;;;;;;;2.07;0.70;;;8.30;99.90;;;8.72;nan;96459.69;171848;28;994;-71
2022/04/25 00:01:04;;;;;;;2.30;0.60;;;8.20;99.90;;;8.73;nan;96461.34;171591;28;1388;-71
2022/04/25 00:01:11;;;;;;;2.30;0.50;;;8.20;99.90;;;8.82;nan;96473.53;171893;28;860;-71
2022/04/25 00:01:17;;;;;;;2.00;0.47;;;8.20;99.90;;;8.82;nan;96462.81;171549;28;1433;-71
2022/04/25 00:01:23;;;;;;;2.08;0.50;;;8.30;99.90;;;8.81;nan;96461.97;171968;28;968;-71
2022/04/25 00:01:29;;;;;;;1.38;0.50;;;8.30;99.90;;;8.83;nan;96467.16;171479;28;1143;-71
2022/04/25 00:01:36;;;;;;;0.82;0.50;;;8.30;99.90;;;8.83;nan;96470.66;171210;28;1007;-71
2022/04/25 00:01:42;;;;;;;0.78;0.56;;;8.30;99.90;;;8.83;nan;96472.53;171454;28;1827;-71
2022/04/25 00:01:48;;;;;;;0.90;0.63;;;8.30;99.90;;;8.76;nan;96463.59;171758;28;1885;-71
2022/04/25 00:01:54;;;;;;;0.90;0.70;;;8.30;99.90;;;8.79;nan;96473.97;171968;28;1223;-71
2022/04/25 00:02:00;;;;;;;1.17;0.75;;;8.30;99.90;;;8.75;nan;96462.81;171219;28;1053;-71
2022/04/25 00:02:06;;;;;;;1.13;0.70;;;8.30;99.90;;;8.71;nan;96461.53;171298;28;1555;-71
2022/04/25 00:02:12;;;;;;;1.30;0.77;;;8.30;99.90;;;8.82;nan;96468.19;171913;28;896;-71
2022/04/25 00:02:19;;;;;;;1.50;0.77;;;8.30;99.90;;;8.79;nan;96463.22;171657;28;1072;-71
2022/04/25 00:02:25;;;;;;;1.83;0.83;;;8.30;99.90;;;8.84;nan;96471.50;171665;28;1001;-71
2022/04/25 00:02:31;;;;;;;2.24;0.84;;;8.30;99.90;;;8.80;nan;96462.22;171667;28;1392;-71
2022/04/25 00:02:37;;;;;;;2.40;0.88;;;8.30;99.90;;;8.85;nan;96473.16;172146;28;1402;-71
2022/04/25 00:02:43;;;;;;;2.20;0.80;;;8.30;99.90;;;8.86;nan;96467.56;173647;28;1082;-71
2022/04/25 00:02:50;;;;;;;2.00;0.77;;;8.30;99.90;;;8.89;nan;96471.72;172778;28;932;-72
2022/04/25 00:02:57;;;;;;;1.73;0.67;;;8.30;99.90;;;8.89;nan;96471.72;173276;28;955;-71
2022/04/25 00:03:04;;;;;;;1.70;0.67;;;8.30;99.90;;;8.83;nan;96456.44;172987;28;1793;-71
2022/04/25 00:03:10;;;;;;;1.93;0.67;;;8.30;99.90;;;8.81;nan;96466.50;171802;28;951;-71
2022/04/25 00:03:16;;;;;;;2.28;0.68;;;8.30;99.90;;;8.85;nan;96474.00;170759;28;1117;-71
2022/04/25 00:03:22;;;;;;;2.40;0.70;;;8.30;99.90;;;8.79;nan;96457.88;170761;28;1824;-71
2022/04/25 00:03:27;;;;;;;2.17;0.70;;;8.30;99.90;;;8.78;nan;96461.56;171962;28;1035;-71
2022/04/25 00:03:33;;;;;;;2.13;0.70;;;8.30;99.90;;;8.76;nan;96460.94;173024;28;1180;-71
2022/04/25 00:03:39;;;;;;;2.75;0.73;;;8.30;99.90;;;8.83;nan;96467.16;172608;28;1411;-71
2022/04/25 00:03:45;;;;;;;2.63;0.80;;;8.30;99.90;;;8.77;nan;96462.59;172277;28;1481;-72
2022/04/25 00:03:51;;;;;;;2.90;0.70;;;8.30;99.90;;;8.71;nan;96464.22;171677;28;1428;-71
2022/04/25 00:03:57;;;;;;;3.03;0.80;;;8.30;99.90;;;8.76;nan;96471.66;172497;28;1325;-71
2022/04/25 00:04:04;;;;;;;2.88;0.73;;;8.30;99.90;;;8.69;nan;96465.47;172567;28;1271;-71
2022/04/25 00:04:10;;;;;;;1.80;0.64;;;8.30;99.90;;;8.75;nan;96475.41;171593;28;1520;-71
2022/04/25 00:04:16;;;;;;;1.85;0.60;;;8.30;99.90;;;8.79;nan;96476.66;171894;28;1903;-70
2022/04/25 00:04:22;;;;;;;1.55;0.60;;;8.30;99.90;;;8.80;nan;96479.13;171982;28;1434;-71
2022/04/25 00:04:28;;;;;;;1.40;0.52;;;8.30;99.90;;;8.82;nan;96470.88;172316;28;1100;-71
2022/04/25 00:04:34;;;;;;;1.60;0.60;;;8.30;99.90;;;8.84;nan;96468.81;171136;28;1497;-70
2022/04/25 00:04:40;;;;;;;1.83;0.75;;;8.30;99.90;;;8.82;nan;96468.19;171922;28;1070;-72
2022/04/25 00:04:46;;;;;;;1.42;0.77;;;8.30;99.90;;;8.80;nan;96478.31;171873;28;1182;-71
2022/04/25 00:04:52;;;;;;;1.53;0.80;;;8.40;99.90;;;8.83;nan;96465.31;172369;28;995;-71
2022/04/25 00:04:58;;;;;;;1.57;0.87;;;8.40;99.90;;;8.81;nan;96466.50;172209;28;1697;-71
2022/04/25 00:05:04;;;;;;;1.40;0.82;;;8.30;99.90;;;8.80;nan;96475.63;170965;28;1409;-71
2022/04/25 00:05:10;;;;;;;1.17;0.77;;;8.30;99.90;;;8.75;nan;96470.03;171212;28;919;-71
2022/04/25 00:05:16;;;;;;;1.10;0.70;;;8.30;99.90;;;8.73;nan;96477.44;171061;28;1152;-71
2022/04/25 00:05:22;;;;;;;1.00;0.65;;;8.40;99.90;;;8.67;nan;96462.13;171289;28;900;-71
2022/04/25 00:05:28;;;;;;;1.00;0.60;;;8.30;99.90;;;8.64;nan;96462.56;171473;28;1111;-71
2022/04/25 00:05:34;;;;;;;0.85;0.50;;;8.30;99.90;;;8.60;nan;96459.41;171767;28;1570;-71
2022/04/25 00:05:40;;;;;;;0.70;0.50;;;8.40;99.90;;;8.62;nan;96462.75;171596;28;1261;-71
2022/04/25 00:05:46;;;;;;;0.77;0.50;;;8.30;99.90;;;8.60;nan;96472.03;171241;28;939;-71
2022/04/25 00:05:52;;;;;;;1.00;0.57;;;8.40;99.90;;;8.51;nan;96476.72;171068;28;1140;-71
2022/04/25 00:05:58;;;;;;;0.93;0.60;;;8.40;99.90;;;8.37;nan;96459.72;172455;28;1043;-71
2022/04/25 00:06:05;;;;;;;1.08;0.60;;;8.40;99.90;;;8.34;nan;96464.69;172561;28;1201;-71
2022/04/25 00:06:11;;;;;;;1.20;0.60;;;8.40;99.90;;;8.36;nan;96463.44;171822;28;2213;-71
2022/04/25 00:06:17;;;;;;;1.43;0.60;;;8.40;99.90;;;8.37;nan;96467.78;171914;28;1935;-71
2022/04/25 00:06:23;;;;;;;1.35;0.50;;;8.40;99.90;;;8.40;nan;96471.91;171545;28;1655;-71
2022/04/25 00:06:30;;;;;;;1.60;0.60;;;8.40;99.90;;;8.37;nan;96467.78;171795;28;1501;-71
2022/04/25 00:06:36;;;;;;;2.10;0.57;;;8.40;99.90;;;8.34;nan;96465.47;170774;28;1276;-71
2022/04/25 00:06:42;;;;;;;2.67;0.70;;;8.50;99.90;;;8.41;nan;96470.88;171800;28;923;-71
2022/04/25 00:06:48;;;;;;;2.53;0.70;;;8.50;99.90;;;8.36;nan;96466.13;171480;28;1189;-71
2022/04/25 00:06:54;;;;;;;3.08;0.80;;;8.50;99.90;;;8.27;nan;96440.47;172394;28;1376;-71
2022/04/25 00:07:00;;;;;;;3.00;0.80;;;8.50;99.90;;;8.48;nan;96469.91;171870;28;1287;-71
2022/04/25 00:07:06;;;;;;;2.60;0.73;;;8.50;99.90;;;8.50;nan;96467.84;171545;28;1813;-71
2022/04/25 00:07:11;;;;;;;1.83;0.68;;;8.50;99.90;;;8.57;nan;96467.03;171480;28;1210;-71
2022/04/25 00:07:17;;;;;;;1.70;0.68;;;8.50;99.90;;;8.53;nan;96456.72;171553;28;1991;-71
2022/04/25 00:07:23;;;;;;;0.95;0.60;;;8.50;99.90;;;8.53;nan;96456.72;171733;28;1265;-71
2022/04/25 00:07:29;;;;;;;0.60;0.53;;;8.50;99.90;;;8.58;nan;96471.38;172292;28;1515;-71
2022/04/25 00:07:35;;;;;;;0.67;0.50;;;8.50;99.90;;;8.55;nan;96466.44;171779;28;1718;-71
2022/04/25 00:07:41;;;;;;;1.35;0.50;;;8.50;99.90;;;8.58;nan;96468.72;172838;28;1266;-71
2022/04/25 00:07:47;;;;;;;2.20;0.50;;;8.50;99.90;;;8.59;nan;96470.38;173210;28;1697;-71
2022/04/25 00:07:53;;;;;;;2.50;0.50;;;8.50;99.90;;;8.54;nan;96462.91;172540;28;1373;-72
2022/04/25 00:07:59;;;;;;;3.00;0.60;;;8.50;99.90;;;8.59;nan;96475.72;172384;28;1408;-71
2022/04/25 00:08:05;;;;;;;3.40;0.60;;;8.50;99.90;;;8.60;nan;96472.81;171344;28;1229;-71
2022/04/25 00:08:12;;;;;;;3.25;0.70;;;8.50;99.90;;;8.60;nan;96470.16;170971;28;1512;-71
2022/04/25 00:08:17;;;;;;;2.70;0.70;;;8.40;99.90;;;8.61;nan;96465.59;171230;28;1351;-71
2022/04/25 00:08:23;;;;;;;2.80;0.63;;;8.40;99.90;;;8.49;nan;96442.06;172397;28;1236;-71
2022/04/25 00:08:29;;;;;;;2.65;0.65;;;8.40;99.90;;;8.63;nan;96468.94;172623;28;911;-71
2022/04/25 00:08:35;;;;;;;2.95;0.70;;;8.40;99.90;;;8.66;nan;96465.84;172189;28;1347;-71
2022/04/25 00:08:42;;;;;;;2.38;0.70;;;8.40;99.90;;;8.66;nan;96465.84;172316;28;1638;-71
2022/04/25 00:08:48;;;;;;;2.20;0.70;;;8.40;99.90;;;8.65;nan;96461.53;171912;28;1196;-71
2022/04/25 00:08:54;;;;;;;1.85;0.70;;;8.40;99.90;;;8.65;nan;96454.31;171930;28;1018;-71
2022/04/25 00:09:00;;;;;;;2.22;0.65;;;8.40;99.90;;;8.72;nan;96468.56;171615;28;1339;-71
2022/04/25 00:09:05;;;;;;;1.45;0.60;;;8.40;99.90;;;8.71;nan;96466.91;171324;28;1848;-71
2022/04/25 00:09:11;;;;;;;1.60;0.65;;;8.40;99.90;;;8.64;nan;96459.88;171708;28;891;-71
2022/04/25 00:09:17;;;;;;;1.60;0.60;;;8.40;99.90;;;8.66;nan;96465.84;171812;28;1390;-71
2022/04/25 00:09:23;;;;;;;1.45;0.60;;;8.40;99.90;;;8.66;nan;96460.47;171132;28;1447;-71
2022/04/25 00:09:29;;;;;;;0.95;0.55;;;8.40;99.90;;;8.70;nan;96467.94;172283;28;1316;-71
2022/04/25 00:09:35;;;;;;;1.20;0.70;;;8.40;99.90;;;8.67;nan;96467.50;172639;28;809;-71
2022/04/25 00:09:41;;;;;;;1.20;0.70;;;8.40;99.90;;;8.64;nan;96468.75;171874;28;1472;-71
2022/04/25 00:09:47;;;;;;;1.20;0.70;;;8.40;99.90;;;8.52;nan;96452.38;171345;28;915;-71
2022/04/25 00:09:53;;;;;;;1.25;0.75;;;8.40;99.90;;;8.58;nan;96456.13;171533;28;1124;-71
2022/04/25 00:09:58;;;;;;;1.55;0.73;;;8.40;99.90;;;8.63;nan;96463.56;170577;29;1015;-71
2022/04/25 00:10:05;;;;;;;1.48;0.77;;;8.30;99.90;;;8.67;nan;96468.34;171064;28;1149;-71
2022/04/25 00:10:13;;;;;;;1.33;0.70;;;8.30;99.90;;;8.65;nan;96461.53;170790;28;1370;-71
2022/04/25 00:10:19;;;;;;;2.07;0.70;;;8.30;99.90;;;8.67;nan;96467.50;171108;28;1195;-71
2022/04/25 00:10:25;;;;;;;2.07;0.70;;;8.30;99.90;;;8.65;nan;96469.56;171157;28;1505;-71
2022/04/25 00:10:32;;;;;;;2.63;0.60;;;8.30;99.90;;;8.55;nan;96464.56;170884;28;1357;-71
2022/04/25 00:10:39;;;;;;;3.34;0.60;;;8.30;99.90;;;8.46;nan;96466.59;171788;28;1044;-70
2022/04/25 00:10:46;;;;;;;3.20;0.60;;;8.30;99.90;;;8.44;nan;96468.66;171625;28;1375;-71
2022/04/25 00:10:51;;;;;;;2.50;0.54;;;8.20;99.90;;;8.39;nan;96471.06;171870;28;911;-71
2022/04/25 00:10:57;;;;;;;2.30;0.60;;;8.20;99.90;;;8.32;nan;96459.50;171028;28;1157;-71
2022/04/25 00:11:04;;;;;;;1.02;0.47;;;8.20;99.90;;;8.31;nan;96459.69;170987;28;2174;-71
2022/04/25 00:11:10;;;;;;;0.90;0.47;;;8.10;99.90;;;8.30;nan;96461.53;171851;28;1343;-71
2022/04/25 00:11:16;;;;;;;1.60;0.50;;;8.10;99.90;;;8.32;nan;96470.22;171718;28;1066;-71
2022/04/25 00:11:22;;;;;;;1.65;0.50;;;8.10;99.90;;;8.38;nan;96468.59;172948;28;1371;-71
2022/04/25 00:11:28;;;;;;;2.13;0.50;;;8.10;99.90;;;8.37;nan;96459.72;172221;28;1519;-71
2022/04/25 00:11:34;;;;;;;2.20;0.60;;;8.10;99.90;;;8.40;nan;96467.38;171918;28;1014;-71
2022/04/25 00:11:40;;;;;;;2.13;0.57;;;8.10;99.90;;;8.43;nan;96467.00;171623;28;990;-71
2022/04/25 00:11:46;;;;;;;1.70;0.50;;;8.00;99.90;;;8.36;nan;96452.72;171193;28;1401;-71
2022/04/25 00:11:52;;;;;;;1.90;0.52;;;8.00;99.90;;;8.47;nan;96467.41;171568;28;1349;-73
2022/04/25 00:11:58;;;;;;;1.38;0.50;;;8.00;99.90;;;8.47;nan;96457.53;171770;28;1723;-71
2022/04/25 00:12:04;;;;;;;1.30;0.50;;;8.00;99.90;;;8.56;nan;96457.34;172478;28;1702;-71
2022/04/25 00:12:11;;;;;;;1.20;0.50;;;8.00;99.90;;;8.61;nan;96469.13;171667;28;1196;-71
2022/04/25 00:12:17;;;;;;;0.77;0.40;;;8.10;99.90;;;8.62;nan;96472.63;171611;28;1218;-71
2022/04/25 00:12:23;;;;;;;0.90;0.40;;;8.00;99.90;;;8.59;nan;96467.69;170290;29;1422;-71
2022/04/25 00:12:29;;;;;;;0.90;0.40;;;8.00;99.90;;;8.59;nan;96456.94;171224;28;1634;-71
2022/04/25 00:12:35;;;;;;;1.02;0.40;;;8.10;99.90;;;8.59;nan;96468.50;171012;28;1180;-71
2022/04/25 00:12:41;;;;;;;1.27;0.40;;;8.00;99.90;;;8.56;nan;96466.22;170903;28;1468;-71
2022/04/25 00:12:47;;;;;;;1.23;0.40;;;8.10;99.90;;;8.53;nan;96462.09;170355;28;1051;-71
2022/04/25 00:12:53;;;;;;;0.90;0.40;;;8.10;99.90;;;8.58;nan;96472.22;171831;28;1958;-71
2022/04/25 00:12:58;;;;;;;1.00;0.40;;;8.10;99.90;;;8.60;nan;96474.72;171567;28;1029;-71
2022/04/25 00:13:04;;;;;;;0.70;0.40;;;8.00;99.90;;;8.56;nan;96462.69;170447;29;1306;-71
2022/04/25 00:13:11;;;;;;;1.20;0.40;;;8.10;99.90;;;8.55;nan;96461.06;171928;28;1046;-71
2022/04/25 00:13:17;;;;;;;1.34;0.42;;;8.10;99.90;;;8.58;nan;96468.72;171214;28;1571;-71
2022/04/25 00:13:24;;;;;;;1.65;0.43;;;8.10;99.90;;;8.61;nan;96471.81;171206;28;1120;-71
2022/04/25 00:13:30;;;;;;;3.47;0.47;;;8.10;99.90;;;8.62;nan;96476.16;171693;28;957;-71
2022/04/25 00:13:36;;;;;;;3.70;0.50;;;8.10;99.90;;;8.60;nan;96466.66;172347;28;1273;-71
2022/04/25 00:13:42;;;;;;;3.00;0.50;;;8.10;99.90;;;8.57;nan;96459.00;172345;28;1520;-71
2022/04/25 00:13:48;;;;;;;3.10;0.50;;;8.10;99.90;;;8.58;nan;96463.34;170928;28;2090;-71
2022/04/25 00:13:55;;;;;;;2.93;0.50;;;8.10;99.90;;;8.58;nan;96466.84;172130;28;1992;-71
2022/04/25 00:14:01;;;;;;;1.03;0.50;;;8.10;99.90;;;8.58;nan;96466.84;172419;28;1946;-71
2022/04/25 00:14:07;;;;;;;1.07;0.50;;;8.10;99.90;;;8.59;nan;96465.00;172053;28;1261;-71
2022/04/25 00:14:14;;;;;;;1.03;0.50;;;8.10;99.90;;;8.55;nan;96461.06;171982;28;882;-71
2022/04/25 00:14:20;;;;;;;0.80;0.50;;;8.10;99.90;;;8.61;nan;96476.34;172221;28;1289;-71
2022/04/25 00:14:26;;;;;;;0.73;0.50;;;8.10;99.90;;;8.55;nan;96464.56;170963;28;1547;-70
2022/04/25 00:14:32;;;;;;;0.75;0.50;;;8.10;99.90;;;8.54;nan;96470.97;170762;28;1048;-71
2022/04/25 00:14:38;;;;;;;0.73;0.50;;;8.10;99.90;;;8.52;nan;96468.47;171648;28;1204;-71
2022/04/25 00:14:44;;;;;;;0.77;0.50;;;8.10;99.90;;;8.50;nan;96473.19;171541;28;1001;-71
2022/04/25 00:14:50;;;;;;;0.80;0.60;;;8.10;99.90;;;8.48;nan;96469.91;171782;28;1281;-71
2022/04/25 00:14:56;;;;;;;0.80;0.55;;;8.10;99.90;;;8.48;nan;96469.06;171918;28;1008;-71
2022/04/25 00:15:02;;;;;;;0.82;0.55;;;8.10;99.90;;;8.50;nan;96467.84;171668;28;1120;-71
2022/04/25 00:15:08;;;;;;;1.77;0.60;;;8.10;99.90;;;8.51;nan;96474.84;170681;28;1602;-71
2022/04/25 00:15:15;;;;;;;2.00;0.60;;;8.10;99.90;;;8.49;nan;96466.19;171612;28;1710;-71
2022/04/25 00:15:21;;;;;;;1.90;0.60;;;8.10;99.90;;;8.53;nan;96472.81;171252;28;960;-71
2022/04/25 00:15:28;;;;;;;1.87;0.53;;;8.10;99.90;;;8.56;nan;96474.25;171742;28;1310;-71
2022/04/25 00:15:34;;;;;;;1.10;0.47;;;8.10;99.90;;;8.51;nan;96461.44;171589;28;1393;-71
2022/04/25 00:15:43;;;;;;;0.65;0.45;;;8.10;99.90;;;8.53;nan;96462.09;171776;28;1423;-71
2022/04/25 00:15:49;;;;;;;0.66;0.46;;;8.10;99.90;;;8.50;nan;96467.84;172552;28;1218;-71
2022/04/25 00:15:55;;;;;;;0.80;0.50;;;8.20;99.90;;;8.51;nan;96477.53;172312;28;1410;-71
2022/04/25 00:16:02;;;;;;;1.15;0.50;;;8.10;99.90;;;8.52;nan;96476.53;172339;28;1866;-71
2022/04/25 00:16:08;;;;;;;1.30;0.60;;;8.20;99.90;;;8.52;nan;96475.69;172097;28;1083;-71
2022/04/25 00:16:14;;;;;;;1.46;0.60;;;8.20;99.90;;;8.56;nan;96476.13;172530;28;1140;-71
2022/04/25 00:16:20;;;;;;;1.55;0.60;;;8.20;99.90;;;8.54;nan;96470.97;171109;28;1873;-71
2022/04/25 00:16:26;;;;;;;1.58;0.60;;;8.20;99.90;;;8.49;nan;96465.38;170584;29;872;-71
2022/04/25 00:16:33;;;;;;;1.30;0.57;;;8.20;99.90;;;8.52;nan;96467.66;171640;28;1245;-71
2022/04/25 00:16:39;;;;;;;1.15;0.60;;;8.20;99.90;;;8.56;nan;96476.94;171575;28;1342;-71
2022/04/25 00:16:45;;;;;;;1.13;0.68;;;8.20;99.90;;;8.50;nan;96470.50;171526;28;1201;-71
2022/04/25 00:16:56;;;;;;;1.00;0.70;;;8.20;99.90;;;8.53;nan;96475.50;171004;28;923;-71
2022/04/25 00:17:02;;;;;;;0.77;0.70;;;8.20;99.90;;;8.53;nan;96485.41;171796;28;1310;-71
2022/04/25 00:17:08;;;;;;;0.80;0.70;;;8.20;99.90;;;8.55;nan;96477.97;170606;28;1983;-71
2022/04/25 00:17:14;;;;;;;1.40;0.65;;;8.20;99.90;;;8.48;nan;96471.75;171891;28;938;-71
2022/04/25 00:17:20;;;;;;;1.52;0.60;;;8.20;99.90;;;8.52;nan;96470.31;171228;28;1235;-71
2022/04/25 00:17:26;;;;;;;1.45;0.50;;;8.20;99.90;;;8.56;nan;96481.47;171641;28;1175;-70
2022/04/25 00:17:32;;;;;;;1.52;0.50;;;8.20;99.90;;;8.48;nan;96469.91;172545;28;895;-71
2022/04/25 00:17:38;;;;;;;1.50;0.50;;;8.20;99.90;;;8.51;nan;96477.53;171728;28;1053;-71
2022/04/25 00:17:44;;;;;;;1.00;0.43;;;8.20;99.90;;;8.44;nan;96471.34;171903;28;930;-71
2022/04/25 00:17:50;;;;;;;1.10;0.43;;;8.30;99.90;;;8.45;nan;96472.97;172309;28;1095;-71
2022/04/25 00:17:56;;;;;;;1.88;0.65;;;8.30;99.90;;;8.50;nan;96470.50;172437;28;1028;-71
2022/04/25 00:18:02;;;;;;;2.28;0.70;;;8.30;99.90;;;8.50;nan;96478.56;171696;28;1248;-71
2022/04/25 00:18:08;;;;;;;2.35;0.80;;;8.30;99.90;;;8.41;nan;96465.53;171816;28;1502;-71
2022/04/25 00:18:14;;;;;;;2.40;0.80;;;8.30;99.90;;;8.40;nan;96467.38;172569;28;1028;-71
2022/04/25 00:18:21;;;;;;;2.23;0.80;;;8.30;99.90;;;8.44;nan;96478.56;171954;28;1037;-71
2022/04/25 00:18:27;;;;;;;1.50;0.70;;;8.30;99.90;;;8.45;nan;96472.97;172561;28;937;-71
2022/04/25 00:18:33;;;;;;;1.13;0.70;;;8.30;99.90;;;8.37;nan;96475.00;171507;28;974;-71
2022/04/25 00:18:40;;;;;;;1.38;0.70;;;8.30;99.90;;;8.42;nan;96478.75;172590;28;966;-71
2022/04/25 00:18:48;;;;;;;1.60;0.73;;;8.30;99.90;;;8.45;nan;96475.66;171501;28;1291;-71
2022/04/25 00:18:54;;;;;;;1.67;0.79;;;8.30;99.90;;;8.44;nan;96478.56;171876;28;1038;-71
2022/04/25 00:19:01;;;;;;;1.88;0.80;;;8.30;99.90;;;8.49;nan;96484.97;172808;28;1315;-71
2022/04/25 00:19:06;;;;;;;1.83;0.73;;;8.20;99.90;;;8.50;nan;96477.72;172634;28;871;-71
2022/04/25 00:19:13;;;;;;;1.73;0.70;;;8.20;99.90;;;8.50;nan;96472.38;172480;28;1327;-71
2022/04/25 00:19:19;;;;;;;1.42;0.65;;;8.20;99.90;;;8.50;nan;96478.56;172487;28;1409;-71
2022/04/25 00:19:25;;;;;;;1.38;0.68;;;8.30;99.90;;;8.44;nan;96471.34;172304;28;1221;-71
2022/04/25 00:19:31;;;;;;;1.27;0.70;;;8.20;99.90;;;8.51;nan;96474.03;171881;28;1156;-71
2022/04/25 00:19:37;;;;;;;1.17;0.75;;;8.20;99.90;;;8.49;nan;96474.25;171608;28;1256;-71
2022/04/25 00:19:43;;;;;;;0.75;0.63;;;8.20;99.90;;;8.50;nan;96472.38;171215;28;868;-71
2022/04/25 00:19:49;;;;;;;0.75;0.63;;;8.20;99.90;;;8.49;nan;96476.94;171020;28;1340;-71
2022/04/25 00:19:55;;;;;;;0.88;0.63;;;8.20;99.90;;;8.46;nan;96476.47;171475;28;1413;-71
2022/04/25 00:20:01;;;;;;;1.33;0.57;;;8.20;99.90;;;8.49;nan;96481.47;172207;28;1859;-71
2022/04/25 00:20:10;;;;;;;1.93;0.53;;;8.20;99.90;;;8.48;nan;96475.28;172207;28;1244;-71
2022/04/25 00:20:16;;;;;;;2.03;0.57;;;8.20;99.90;;;8.47;nan;96486.19;172135;28;1041;-71
2022/04/25 00:20:22;;;;;;;2.17;0.57;;;8.20;99.90;;;8.48;nan;96485.16;172372;28;1061;-71
2022/04/25 00:20:28;;;;;;;2.77;0.73;;;8.20;99.90;;;8.49;nan;96482.28;171882;28;836;-71
2022/04/25 00:20:34;;;;;;;1.67;0.70;;;8.20;99.90;;;8.41;nan;96479.75;171518;28;2241;-71
2022/04/25 00:20:40;;;;;;;1.70;0.70;;;8.20;99.90;;;8.38;nan;96469.44;172567;28;1057;-71
2022/04/25 00:20:46;;;;;;;1.90;0.80;;;8.20;99.90;;;8.47;nan;96483.50;172875;28;1333;-71
2022/04/25 00:20:52;;;;;;;2.07;0.77;;;8.20;99.90;;;8.44;nan;96470.50;173277;28;1623;-71
2022/04/25 00:20:57;;;;;;;1.52;0.68;;;8.20;99.90;;;8.49;nan;96481.47;171459;28;1427;-71
2022/04/25 00:21:04;;;;;;;1.50;0.70;;;8.20;99.90;;;8.50;nan;96478.56;171243;28;812;-71
2022/04/25 00:21:10;;;;;;;1.47;0.70;;;8.20;99.90;;;8.46;nan;96477.31;172037;28;1057;-71
2022/04/25 00:21:16;;;;;;;1.33;0.70;;;8.20;99.90;;;8.47;nan;96476.28;171739;28;1733;-71
2022/04/25 00:21:22;;;;;;;1.00;0.70;;;8.20;99.90;;;8.46;nan;96471.94;170956;28;1079;-70
2022/04/25 00:21:28;;;;;;;1.00;0.70;;;8.20;99.90;;;8.53;nan;96480.88;171512;28;1194;-71
2022/04/25 00:21:34;;;;;;;0.93;0.60;;;8.20;99.90;;;8.50;nan;96473.19;171952;28;1017;-71
2022/04/25 00:21:39;;;;;;;1.20;0.68;;;8.20;99.90;;;8.55;nan;96486.00;171653;28;1091;-71
2022/04/25 00:21:45;;;;;;;1.35;0.70;;;8.20;99.90;;;8.54;nan;96484.38;171295;28;798;-71
2022/04/25 00:21:52;;;;;;;1.65;0.70;;;8.20;99.90;;;8.56;nan;96479.63;170606;28;1425;-71
2022/04/25 00:21:58;;;;;;;1.67;0.70;;;8.30;99.90;;;8.54;nan;96476.34;171780;28;1731;-71
2022/04/25 00:22:04;;;;;;;2.05;0.77;;;8.20;99.90;;;8.58;nan;96480.25;171549;28;1097;-71
2022/04/25 00:22:10;;;;;;;1.90;0.70;;;8.20;99.90;;;8.57;nan;96472.41;171926;28;1060;-71
2022/04/25 00:22:16;;;;;;;1.67;0.70;;;8.30;99.90;;;8.60;nan;96482.75;171853;28;1124;-71
2022/04/25 00:22:21;;;;;;;1.38;0.70;;;8.30;99.90;;;8.63;nan;96482.34;171898;28;1228;-71
2022/04/25 00:22:27;;;;;;;1.30;0.70;;;8.30;99.90;;;8.62;nan;96472.63;172857;28;895;-71
2022/04/25 00:22:34;;;;;;;0.80;0.50;;;8.30;99.90;;;8.65;nan;96489.19;172247;28;1148;-71
2022/04/25 00:22:40;;;;;;;0.80;0.50;;;8.30;99.90;;;8.67;nan;96486.28;172447;28;1395;-71
2022/04/25 00:22:46;;;;;;;0.90;0.55;;;8.30;99.90;;;8.64;nan;96473.28;170712;28;1076;-71
2022/04/25 00:22:52;;;;;;;1.08;0.60;;;8.30;99.90;;;8.60;nan;96467.47;171451;28;1233;-71
2022/04/25 00:23:00;;;;;;;1.05;0.60;;;8.30;99.90;;;8.67;nan;96478.22;172222;28;1029;-71
2022/04/25 00:23:06;;;;;;;1.10;0.70;;;8.30;99.90;;;8.65;nan;96477.63;171235;28;1367;-71
2022/04/25 00:23:12;;;;;;;1.07;0.70;;;8.30;99.90;;;8.51;nan;96457.94;172124;28;1289;-71
2022/04/25 00:23:18;;;;;;;1.60;0.68;;;8.20;99.90;;;8.58;nan;96468.72;172992;28;1728;-71
2022/04/25 00:23:24;;;;;;;1.48;0.70;;;8.20;99.90;;;8.63;nan;96479.66;172051;28;1320;-71
2022/04/25 00:23:30;;;;;;;1.55;0.70;;;8.20;99.90;;;8.58;nan;96477.59;171125;28;1324;-71
2022/04/25 00:23:37;;;;;;;2.37;0.70;;;8.20;99.90;;;8.61;nan;96473.66;171037;28;1524;-71
2022/04/25 00:23:44;;;;;;;2.22;0.70;;;8.20;99.90;;;8.55;nan;96469.13;170945;28;1354;-71
2022/04/25 00:23:49;;;;;;;2.87;0.70;;;8.20;99.90;;;8.61;nan;96479.03;171819;28;1440;-71
2022/04/25 00:23:55;;;;;;;2.95;0.70;;;8.20;99.90;;;8.56;nan;96471.56;172283;28;1440;-71
2022/04/25 00:24:01;;;;;;;3.00;0.67;;;8.20;99.90;;;8.61;nan;96479.03;172002;28;1560;-71
2022/04/25 00:24:07;;;;;;;2.50;0.60;;;8.20;99.90;;;8.55;nan;96475.28;172592;28;1082;-71
2022/04/25 00:24:13;;;;;;;2.55;0.65;;;8.20;99.90;;;8.57;nan;96478.59;172408;28;1260;-71
2022/04/25 00:24:20;;;;;;;1.88;0.68;;;8.20;99.90;;;8.55;nan;96472.59;172087;28;1571;-71
2022/04/25 00:24:25;;;;;;;1.40;0.60;;;8.10;99.90;;;8.58;nan;96479.44;171909;28;1241;-71
2022/04/25 00:24:31;;;;;;;0.95;0.60;;;8.10;99.90;;;8.52;nan;96475.69;170637;28;1861;-71
2022/04/25 00:24:37;;;;;;;1.10;0.70;;;8.10;99.90;;;8.52;nan;96471.16;172302;28;1146;-71
2022/04/25 00:24:44;;;;;;;1.10;0.70;;;8.10;99.90;;;8.59;nan;96475.72;171667;28;991;-71
2022/04/25 00:24:50;;;;;;;1.24;0.64;;;8.10;99.90;;;8.59;nan;96475.72;172561;28;950;-71
2022/04/25 00:24:56;;;;;;;1.20;0.70;;;8.10;99.90;;;8.57;nan;96473.25;171997;28;1559;-71
2022/04/25 00:25:03;;;;;;;1.38;0.73;;;8.10;99.90;;;8.58;nan;96477.59;171863;28;1479;-71
2022/04/25 00:25:09;;;;;;;1.40;0.70;;;8.10;99.90;;;8.53;nan;96464.78;172070;28;1481;-71
2022/04/25 00:25:15;;;;;;;1.40;0.70;;;8.10;99.90;;;8.56;nan;96465.38;172559;28;889;-71
2022/04/25 00:25:21;;;;;;;1.45;0.70;;;8.10;99.90;;;8.60;nan;96480.06;173052;28;1326;-71
2022/04/25 00:25:28;;;;;;;2.30;0.70;;;8.10;99.90;;;8.59;nan;96481.09;171777;28;997;-71
2022/04/25 00:25:35;;;;;;;2.30;0.67;;;8.20;99.90;;;8.57;nan;96475.09;170900;28;1498;-71
2022/04/25 00:25:41;;;;;;;2.96;0.70;;;8.20;99.90;;;8.56;nan;96482.31;171566;28;1424;-71
2022/04/25 00:25:47;;;;;;;3.20;0.70;;;8.10;99.90;;;8.51;nan;96474.84;171250;28;1034;-71
2022/04/25 00:25:53;;;;;;;2.42;0.70;;;8.10;99.90;;;8.57;nan;96478.59;170435;28;1063;-71
2022/04/25 00:25:59;;;;;;;2.33;0.80;;;8.20;99.90;;;8.56;nan;96476.13;171527;28;1524;-71
2022/04/25 00:26:06;;;;;;;2.17;0.75;;;8.20;99.90;;;8.58;nan;96482.13;172271;28;1091;-73
2022/04/25 00:26:12;;;;;;;2.30;0.67;;;8.20;99.90;;;8.53;nan;96461.25;171940;28;888;-71
2022/04/25 00:26:18;;;;;;;2.15;0.60;;;8.20;99.90;;;8.56;nan;96468.06;171455;28;1491;-71
2022/04/25 00:26:23;;;;;;;2.38;0.60;;;8.20;99.90;;;8.57;nan;96472.41;172446;28;1073;-71
2022/04/25 00:26:29;;;;;;;2.63;0.60;;;8.20;99.90;;;8.58;nan;96466.84;171054;28;1057;-71
2022/04/25 00:26:35;;;;;;;2.70;0.60;;;8.20;99.90;;;8.66;nan;96476.56;171821;28;856;-71
2022/04/25 00:26:41;;;;;;;1.92;0.52;;;8.20;99.90;;;8.63;nan;96468.94;171480;28;1200;-71
2022/04/25 00:26:47;;;;;;;2.35;0.60;;;8.20;99.90;;;8.68;nan;96477.22;171594;28;1329;-71
2022/04/25 00:26:53;;;;;;;2.15;0.57;;;8.20;99.90;;;8.68;nan;96475.34;171135;28;1565;-71
2022/04/25 00:26:59;;;;;;;2.75;0.60;;;8.20;99.90;;;8.72;nan;96476.59;171459;28;1399;-71
2022/04/25 00:27:05;;;;;;;3.00;0.50;;;8.20;99.90;;;8.71;nan;96471.44;171740;28;1249;-71
2022/04/25 00:27:12;;;;;;;2.85;0.50;;;8.20;99.90;;;8.72;nan;96473.09;170977;28;1137;-71
2022/04/25 00:27:18;;;;;;;2.80;0.50;;;8.20;99.90;;;8.74;nan;96479.94;171092;28;1321;-71
2022/04/25 00:27:25;;;;;;;2.72;0.50;;;8.30;99.90;;;8.73;nan;96477.44;170524;28;1410;-71
2022/04/25 00:27:31;;;;;;;1.12;0.40;;;8.30;99.90;;;8.76;nan;96479.72;171763;28;1407;-71
2022/04/25 00:27:37;;;;;;;1.20;0.50;;;8.30;99.90;;;8.75;nan;96475.41;171139;28;1104;-71
2022/04/25 00:27:43;;;;;;;1.00;0.55;;;8.30;99.90;;;8.64;nan;96454.50;171816;28;804;-71